createdAt,value
2023-09-27T00:00:42.075Z,68.61
2023-09-27T00:03:35.829Z,68.63
2023-09-27T00:06:25.385Z,68.48
2023-09-27T00:09:15.410Z,68.60
2023-09-27T00:12:09.664Z,68.60
2023-09-27T00:15:02.585Z,68.60
2023-09-27T00:17:52.181Z,68.51
2023-09-27T00:20:41.841Z,68.67
2023-09-27T00:23:31.584Z,68.84
2023-09-27T00:26:22.333Z,68.81
2023-09-27T00:29:12.097Z,68.75
2023-09-27T00:32:01.445Z,68.88
2023-09-27T00:35:01.367Z,68.65
2023-09-27T00:37:51.969Z,68.98
2023-09-27T00:40:57.013Z,68.95
2023-09-27T00:43:46.612Z,69.05
2023-09-27T00:46:36.829Z,68.94
2023-09-27T00:49:23.009Z,69.07
2023-09-27T00:52:14.537Z,68.98
2023-09-27T00:55:03.999Z,69.22
2023-09-27T00:57:54.605Z,69.06
2023-09-27T01:00:44.272Z,69.01
2023-09-27T01:03:36.415Z,68.89
2023-09-27T01:06:26.509Z,68.95
2023-09-27T01:09:17.556Z,69.14
2023-09-27T01:12:08.300Z,69.13
2023-09-27T01:14:57.473Z,69.36
2023-09-27T01:17:57.772Z,69.77
2023-09-27T01:20:47.123Z,69.67
2023-09-27T01:23:39.881Z,69.59
2023-09-27T01:26:34.953Z,69.67
2023-09-27T01:29:17.408Z,69.90
2023-09-27T01:32:07.101Z,69.74
2023-09-27T01:35:03.476Z,70.11
2023-09-27T01:37:53.310Z,70.04
2023-09-27T01:40:43.941Z,69.93
2023-09-27T01:43:34.932Z,69.93
2023-09-27T01:46:23.964Z,70.01
2023-09-27T01:49:15.946Z,70.13
2023-09-27T01:52:05.114Z,69.91
2023-09-27T01:54:54.496Z,69.94
2023-09-27T01:57:46.046Z,69.95
2023-09-27T02:00:37.263Z,69.79
2023-09-27T02:03:26.048Z,69.77
2023-09-27T02:06:15.610Z,69.86
2023-09-27T02:09:05.270Z,69.94
2023-09-27T02:11:54.566Z,69.62
2023-09-27T02:14:45.276Z,69.49
2023-09-27T02:17:36.819Z,69.70
2023-09-27T02:20:26.487Z,69.51
2023-09-27T02:23:15.609Z,69.62
2023-09-27T02:26:05.054Z,69.77
2023-09-27T02:28:47.005Z,69.80
2023-09-27T02:31:36.720Z,69.83
2023-09-27T02:34:29.008Z,69.82
2023-09-27T02:37:20.215Z,69.59
2023-09-27T02:40:18.262Z,69.38
2023-09-27T02:43:07.238Z,69.96
2023-09-27T02:46:02.485Z,69.81
2023-09-27T02:48:51.690Z,69.60
2023-09-27T02:51:41.681Z,69.52
2023-09-27T02:54:30.957Z,70.04
2023-09-27T02:57:20.980Z,70.16
2023-09-27T03:00:12.152Z,69.81
2023-09-27T03:03:02.604Z,69.64
2023-09-27T03:05:54.957Z,69.82
2023-09-27T03:08:44.457Z,69.73
2023-09-27T03:11:37.640Z,69.72
2023-09-27T03:14:27.593Z,69.89
2023-09-27T03:17:23.113Z,69.99
2023-09-27T03:23:36.384Z,70.00
2023-09-27T03:26:25.776Z,69.88
2023-09-27T03:29:15.295Z,69.98
2023-09-27T03:32:05.939Z,69.64
2023-09-27T03:34:58.504Z,69.84
2023-09-27T03:37:48.486Z,69.69
2023-09-27T03:40:41.690Z,70.01
2023-09-27T03:43:33.287Z,70.15
2023-09-27T03:46:49.260Z,69.72
2023-09-27T03:49:44.411Z,69.56
2023-09-27T03:52:36.380Z,69.54
2023-09-27T03:55:26.344Z,69.38
2023-09-27T03:58:16.662Z,69.66
2023-09-27T04:01:06.252Z,69.72
2023-09-27T04:03:56.680Z,69.41
2023-09-27T04:06:46.461Z,69.22
2023-09-27T04:09:32.583Z,69.53
2023-09-27T04:12:22.072Z,69.49
2023-09-27T04:15:14.590Z,69.30
2023-09-27T04:18:05.473Z,69.23
2023-09-27T04:20:55.419Z,69.43
2023-09-27T04:24:07.413Z,69.55
2023-09-27T04:26:56.333Z,69.55
2023-09-27T04:29:47.050Z,69.55
2023-09-27T04:32:37.124Z,69.71
2023-09-27T04:35:26.275Z,69.70
2023-09-27T04:38:16.888Z,69.56
2023-09-27T04:41:07.744Z,69.82
2023-09-27T04:43:58.200Z,69.96
2023-09-27T04:47:03.247Z,70.19
2023-09-27T04:49:52.149Z,70.14
2023-09-27T04:52:44.172Z,70.12
2023-09-27T04:55:34.524Z,70.39
2023-09-27T04:58:22.290Z,70.23
2023-09-27T05:01:12.517Z,70.18
2023-09-27T05:04:01.824Z,70.43
2023-09-27T05:06:50.924Z,70.37
2023-09-27T05:09:40.757Z,70.34
2023-09-27T05:12:29.997Z,70.58
2023-09-27T05:15:32.991Z,70.69
2023-09-27T05:18:23.469Z,70.68
2023-09-27T05:21:12.958Z,70.69
2023-09-27T05:24:03.007Z,70.77
2023-09-27T05:26:51.073Z,70.70
2023-09-27T05:29:41.166Z,70.76
2023-09-27T05:32:30.614Z,70.79
2023-09-27T05:35:19.827Z,70.87
2023-09-27T05:38:13.031Z,70.61
2023-09-27T05:41:10.998Z,70.80
2023-09-27T05:44:02.552Z,70.64
2023-09-27T05:46:52.076Z,70.86
2023-09-27T05:49:42.353Z,70.72
2023-09-27T05:52:33.922Z,70.81
2023-09-27T05:55:16.495Z,71.28
2023-09-27T05:58:06.381Z,71.40
2023-09-27T06:00:55.415Z,70.98
2023-09-27T06:03:46.413Z,70.71
2023-09-27T06:06:39.847Z,70.77
2023-09-27T06:09:28.650Z,70.82
2023-09-27T06:12:17.673Z,70.77
2023-09-27T06:15:10.933Z,70.80
2023-09-27T06:18:02.119Z,70.70
2023-09-27T06:20:52.752Z,70.95
2023-09-27T06:23:41.892Z,70.85
2023-09-27T06:26:37.616Z,71.21
2023-09-27T06:29:26.669Z,71.41
2023-09-27T06:32:16.258Z,71.96
2023-09-27T06:35:15.063Z,72.19
2023-09-27T06:38:06.433Z,72.14
2023-09-27T06:40:49.813Z,71.12
2023-09-27T06:43:39.513Z,70.58
2023-09-27T06:46:35.648Z,69.87
2023-09-27T06:49:35.892Z,69.96
2023-09-27T06:52:26.348Z,69.82
2023-09-27T06:55:25.816Z,69.94
2023-09-27T06:58:05.224Z,70.19
2023-09-27T07:00:58.224Z,70.01
2023-09-27T07:03:46.103Z,70.15
2023-09-27T07:06:38.046Z,70.18
2023-09-27T07:09:27.481Z,70.17
2023-09-27T07:12:16.601Z,69.99
2023-09-27T07:15:03.336Z,70.22
2023-09-27T07:17:52.810Z,70.39
2023-09-27T07:20:42.902Z,70.79
2023-09-27T07:23:34.517Z,70.94
2023-09-27T07:26:23.817Z,70.46
2023-09-27T07:29:13.106Z,70.01
2023-09-27T07:32:03.059Z,69.98
2023-09-27T07:35:04.265Z,69.91
2023-09-27T07:37:44.310Z,69.48
2023-09-27T07:40:35.155Z,69.29
2023-09-27T07:43:24.153Z,69.17
2023-09-27T07:46:15.037Z,69.19
2023-09-27T07:49:15.478Z,69.06
2023-09-27T07:52:05.435Z,69.24
2023-09-27T07:54:54.941Z,69.66
2023-09-27T07:57:44.539Z,69.94
2023-09-27T08:00:36.488Z,70.00
2023-09-27T08:03:20.204Z,69.91
2023-09-27T08:06:09.793Z,69.70
2023-09-27T08:08:58.987Z,69.41
2023-09-27T08:11:48.516Z,69.14
2023-09-27T08:14:38.023Z,68.55
2023-09-27T08:17:27.925Z,67.71
2023-09-27T08:20:19.770Z,66.88
2023-09-27T08:23:12.608Z,66.20
2023-09-27T08:26:01.704Z,65.74
2023-09-27T08:28:51.201Z,65.72
2023-09-27T08:31:52.546Z,65.87
2023-09-27T08:34:41.577Z,66.01
2023-09-27T08:37:37.653Z,65.89
2023-09-27T08:40:26.512Z,66.12
2023-09-27T08:43:16.667Z,66.33
2023-09-27T08:46:07.124Z,66.43
2023-09-27T08:48:58.603Z,66.33
2023-09-27T08:51:49.328Z,66.44
2023-09-27T08:54:38.534Z,66.59
2023-09-27T08:57:37.957Z,66.84
2023-09-27T09:00:29.722Z,67.30
2023-09-27T09:03:20.490Z,67.47
2023-09-27T09:06:13.580Z,67.32
2023-09-27T09:09:11.223Z,66.84
2023-09-27T09:12:10.365Z,66.46
2023-09-27T09:15:03.992Z,66.10
2023-09-27T09:17:58.077Z,65.66
2023-09-27T09:20:54.880Z,65.37
2023-09-27T09:23:48.277Z,64.81
2023-09-27T09:26:38.040Z,64.33
2023-09-27T09:29:28.683Z,64.06
2023-09-27T09:32:20.205Z,64.01
2023-09-27T09:35:10.460Z,63.53
2023-09-27T09:38:02.222Z,63.39
2023-09-27T09:40:57.946Z,63.26
2023-09-27T09:43:47.050Z,63.12
2023-09-27T09:46:52.612Z,63.06
2023-09-27T09:49:42.572Z,62.70
2023-09-27T09:52:38.873Z,63.01
2023-09-27T11:42:52.210Z,58.32
2023-09-27T11:45:49.382Z,57.93
2023-09-27T11:48:40.015Z,57.83
2023-09-27T11:51:29.565Z,57.99
2023-09-27T11:54:18.382Z,57.81
2023-09-27T11:57:07.490Z,57.68
2023-09-27T11:59:57.673Z,57.46
2023-09-27T12:02:56.198Z,57.24
2023-09-27T12:05:47.320Z,57.11
2023-09-27T12:08:37.573Z,57.12
2023-09-27T12:11:19.782Z,57.19
2023-09-27T12:14:12.633Z,56.93
2023-09-27T12:17:01.143Z,56.76
2023-09-27T12:19:51.109Z,56.72
2023-09-27T12:22:40.301Z,56.74
2023-09-27T12:25:29.528Z,56.60
2023-09-27T12:28:20.300Z,56.63
2023-09-27T12:31:11.855Z,56.63
2023-09-27T12:34:01.946Z,56.70
2023-09-27T12:36:50.891Z,56.41
2023-09-27T12:39:39.997Z,56.34
2023-09-27T12:42:28.924Z,56.34
2023-09-27T12:45:26.863Z,56.31
2023-09-27T12:48:16.191Z,56.08
2023-09-27T12:51:08.617Z,56.12
2023-09-27T12:53:58.078Z,56.09
2023-09-27T12:56:47.331Z,55.95
2023-09-27T12:59:37.808Z,55.90
2023-09-27T13:02:29.237Z,55.89
2023-09-27T13:05:18.796Z,55.81
2023-09-27T13:08:15.708Z,55.82
2023-09-27T13:11:05.859Z,55.79
2023-09-27T13:13:55.320Z,55.71
2023-09-27T13:16:48.641Z,55.75
2023-09-27T13:19:37.833Z,55.61
2023-09-27T13:22:26.952Z,55.57
2023-09-27T13:25:16.864Z,55.60
2023-09-27T13:28:33.921Z,55.58
2023-09-27T13:31:24.423Z,55.52
2023-09-27T13:34:16.894Z,55.52
2023-09-27T13:37:06.603Z,55.33
2023-09-27T13:39:56.975Z,55.30
2023-09-27T13:42:48.655Z,55.28
2023-09-27T13:45:30.861Z,55.37
2023-09-27T13:48:20.405Z,55.17
2023-09-27T13:51:15.797Z,55.27
2023-09-27T13:54:05.657Z,55.17
2023-09-27T13:56:56.124Z,55.07
2023-09-27T13:59:46.753Z,55.13
2023-09-27T14:02:35.819Z,55.06
2023-09-27T14:05:23.831Z,54.95
2023-09-27T14:08:18.371Z,54.94
2023-09-27T14:11:14.572Z,54.88
2023-09-27T14:14:04.470Z,54.72
2023-09-27T14:16:54.381Z,54.63
2023-09-27T14:19:43.340Z,54.81
2023-09-27T14:22:35.916Z,54.70
2023-09-27T14:25:27.208Z,54.70
2023-09-27T14:28:17.656Z,54.59
2023-09-27T14:30:56.921Z,54.70
2023-09-27T14:33:48.093Z,54.64
2023-09-27T14:36:45.301Z,54.63
2023-09-27T14:40:00.250Z,54.57
2023-09-27T14:42:58.850Z,54.62
2023-09-27T14:45:55.736Z,54.52
2023-09-27T14:48:50.413Z,54.57
2023-09-27T14:51:50.605Z,54.54
2023-09-27T14:54:39.717Z,54.57
2023-09-27T14:57:29.125Z,54.56
2023-09-27T15:00:23.244Z,54.60
2023-09-27T15:03:18.680Z,54.64
2023-09-27T15:06:08.005Z,54.69
2023-09-27T15:08:57.404Z,54.72
2023-09-27T15:11:47.673Z,54.63
2023-09-27T15:14:39.248Z,54.81
2023-09-27T15:17:49.619Z,54.77
2023-09-27T15:20:43.896Z,54.89
2023-09-27T15:23:34.430Z,54.78
2023-09-27T15:26:25.381Z,54.90
2023-09-27T15:29:17.540Z,54.76
2023-09-27T15:32:06.845Z,54.89
2023-09-27T15:34:57.745Z,54.93
2023-09-27T15:37:53.579Z,54.94
2023-09-27T15:40:42.690Z,55.03
2023-09-27T15:43:36.033Z,54.96
2023-09-27T15:46:26.047Z,55.00
2023-09-27T15:49:18.027Z,55.05
2023-09-27T15:52:06.963Z,55.09
2023-09-27T15:54:57.075Z,55.01
2023-09-27T15:57:46.174Z,55.11
2023-09-27T16:00:46.396Z,55.11
2023-09-27T16:03:39.621Z,55.09
2023-09-27T16:06:44.796Z,55.15
2023-09-27T16:09:43.942Z,54.99
2023-09-27T16:12:57.130Z,55.10
2023-09-27T16:16:08.470Z,55.33
2023-09-27T16:18:57.989Z,55.37
2023-09-27T16:21:49.736Z,55.41
2023-09-27T16:24:41.449Z,55.37
2023-09-27T16:27:31.036Z,55.44
2023-09-27T16:30:21.032Z,55.50
2023-09-27T16:33:11.431Z,55.57
2023-09-27T16:36:03.798Z,55.56
2023-09-27T16:38:55.481Z,55.70
2023-09-27T16:41:46.700Z,55.75
2023-09-27T16:44:36.395Z,55.69
2023-09-27T16:47:16.585Z,55.93
2023-09-27T16:50:08.248Z,55.92
2023-09-27T16:52:38.252Z,55.83
2023-09-27T16:55:27.661Z,56.00
2023-09-27T16:58:17.794Z,56.07
2023-09-27T17:01:08.125Z,56.27
2023-09-27T17:03:58.941Z,56.31
2023-09-27T17:06:49.330Z,56.50
2023-09-27T17:09:39.333Z,56.55
2023-09-27T17:12:29.160Z,56.64
2023-09-27T17:15:20.272Z,56.87
2023-09-27T17:18:10.856Z,56.86
2023-09-27T17:21:02.187Z,57.04
2023-09-27T17:23:52.230Z,57.14
2023-09-27T17:27:03.545Z,57.33
2023-09-27T17:29:54.470Z,57.51
2023-09-27T17:32:44.616Z,57.71
2023-09-27T17:35:36.494Z,57.73
2023-09-27T17:41:39.918Z,57.76
2023-09-27T17:44:30.453Z,57.97
2023-09-27T17:47:20.057Z,57.97
2023-09-27T17:50:10.694Z,58.17
2023-09-27T17:53:00.771Z,58.11
2023-09-27T17:55:50.957Z,58.24
2023-09-27T17:58:48.157Z,58.42
2023-09-27T18:01:46.329Z,58.47
2023-09-27T18:04:39.541Z,58.55
2023-09-27T18:07:29.096Z,58.58
2023-09-27T18:10:19.497Z,58.68
2023-09-27T18:13:48.415Z,58.75
2023-09-27T18:16:52.071Z,58.79
2023-09-27T18:19:41.592Z,59.02
2023-09-27T18:22:32.111Z,59.11
2023-09-27T18:25:15.291Z,59.18
2023-09-27T18:30:59.177Z,59.27
2023-09-27T18:33:41.932Z,59.37
2023-09-27T18:36:31.525Z,59.40
2023-09-27T18:39:31.691Z,59.45
2023-09-27T18:42:22.397Z,59.57
2023-09-27T18:45:13.154Z,59.62
2023-09-27T18:48:11.145Z,59.73
2023-09-27T18:51:04.821Z,59.82
2023-09-27T18:53:55.048Z,59.75
2023-09-27T18:56:45.840Z,59.81
2023-09-27T18:59:38.976Z,59.89
2023-09-27T19:02:38.109Z,60.12
2023-09-27T19:05:28.208Z,60.08
2023-09-27T19:08:18.336Z,60.18
2023-09-27T19:11:55.391Z,60.10
2023-09-27T19:14:19.816Z,60.26
2023-09-27T19:18:01.268Z,60.48
2023-09-27T19:20:52.747Z,60.44
2023-09-27T19:23:50.408Z,60.48
2023-09-27T19:26:40.270Z,60.63
2023-09-27T19:29:28.105Z,60.67
2023-09-27T19:32:18.576Z,60.71
2023-09-27T19:35:09.422Z,60.70
2023-09-27T19:37:58.910Z,60.69
2023-09-27T19:40:51.502Z,60.89
2023-09-27T19:43:57.335Z,60.70
2023-09-27T19:46:51.552Z,61.05
2023-09-27T19:49:40.772Z,61.10
2023-09-27T19:52:30.682Z,61.29
2023-09-27T19:55:20.786Z,61.21
2023-09-27T19:58:23.259Z,61.29
2023-09-27T20:01:25.729Z,61.39
2023-09-27T20:04:18.416Z,61.41
2023-09-27T20:07:07.664Z,61.27
2023-09-27T20:09:57.067Z,61.41
2023-09-27T20:12:52.236Z,61.44
2023-09-27T20:15:37.266Z,61.54
2023-09-27T20:18:26.583Z,61.70
2023-09-27T20:21:26.948Z,61.58
2023-09-27T20:24:21.289Z,61.87
2023-09-27T20:27:14.423Z,61.98
2023-09-27T20:30:04.199Z,62.14
2023-09-27T20:32:53.940Z,62.08
2023-09-27T20:35:52.802Z,62.11
2023-09-27T20:38:42.335Z,62.35
2023-09-27T20:41:36.992Z,62.28
2023-09-27T20:44:38.580Z,62.29
2023-09-27T20:47:29.632Z,62.07
2023-09-27T20:50:20.073Z,62.26
2023-09-27T20:53:12.105Z,62.15
2023-09-27T20:56:05.643Z,62.09
2023-09-27T20:59:08.603Z,62.35
2023-09-27T21:02:00.359Z,62.45
2023-09-27T21:04:49.765Z,62.37
2023-09-27T21:07:39.494Z,62.56
2023-09-27T21:10:34.313Z,62.79
2023-09-27T21:13:23.745Z,62.53
2023-09-27T21:16:18.288Z,62.74
2023-09-27T21:19:07.952Z,62.96
2023-09-27T21:21:56.903Z,62.76
2023-09-27T21:24:46.417Z,62.61
2023-09-27T21:27:36.338Z,62.80
2023-09-27T21:30:25.816Z,62.88
2023-09-27T21:33:19.437Z,62.90
2023-09-27T21:36:10.329Z,63.02
2023-09-27T21:39:00.169Z,62.95
2023-09-27T21:41:52.260Z,63.25
2023-09-27T21:44:36.804Z,63.26
2023-09-27T21:47:29.650Z,63.03
2023-09-27T21:50:26.010Z,63.46
2023-09-27T21:56:21.901Z,63.55
2023-09-27T21:59:13.793Z,63.62
2023-09-27T22:01:53.517Z,63.66
2023-09-27T22:04:44.784Z,63.69
2023-09-27T22:07:36.274Z,63.74
2023-09-27T22:10:27.269Z,63.72
2023-09-27T22:13:22.030Z,63.79
2023-09-27T22:16:25.632Z,64.03
2023-09-27T22:19:14.693Z,63.95
2023-09-27T22:21:46.759Z,63.93
2023-09-27T22:24:37.995Z,63.98
2023-09-27T22:27:17.218Z,63.88
2023-09-27T22:30:14.682Z,64.12
2023-09-27T22:33:03.720Z,63.85
2023-09-27T22:35:52.741Z,63.75
2023-09-27T22:38:43.196Z,63.73
2023-09-27T22:41:35.476Z,63.62
2023-09-27T22:44:26.289Z,63.69
2023-09-27T22:47:05.702Z,63.80
2023-09-27T22:49:55.264Z,63.61
2023-09-27T22:52:44.515Z,63.62
2023-09-27T22:55:41.521Z,63.70
2023-09-27T22:58:38.156Z,63.91
2023-09-27T23:01:37.932Z,64.22
2023-09-27T23:04:26.979Z,64.10
2023-09-27T23:07:20.932Z,64.24
2023-09-27T23:10:12.808Z,64.19
2023-09-27T23:13:05.187Z,64.06
2023-09-27T23:15:56.050Z,64.29
2023-09-27T23:18:45.393Z,64.02
2023-09-27T23:21:42.392Z,64.00
2023-09-27T23:24:43.282Z,63.94
2023-09-27T23:27:33.076Z,64.08
2023-09-27T23:30:26.014Z,64.63
2023-09-27T23:33:15.204Z,64.55
2023-09-27T23:36:05.276Z,64.59
2023-09-27T23:38:59.162Z,64.46
2023-09-27T23:41:49.829Z,64.32
2023-09-27T23:44:41.621Z,64.41
2023-09-27T23:47:23.012Z,64.43
2023-09-27T23:50:09.573Z,64.51
2023-09-27T23:52:59.637Z,64.68
2023-09-27T23:55:50.419Z,65.10
2023-09-27T23:58:42.491Z,65.17
